Time;durP1;ratioP1;P1;durP2;ratioP2;P2;SDS_P1;SDS_P2;PMS_P1;PMS_P2;Temp;Humidity;BMP_temperature;BMP_pressure;BME280_temperature;BME280_humidity;BME280_pressure;Samples;Min_cycle;Max_cycle;Signal;HPM_P1;HPM_P2
2023/08/03 00:00:32;;;;;;;8.05;2.78;;;15.70;99.90;;;;;;4992146;28;20026;-74
2023/08/03 00:02:58;;;;;;;5.35;2.90;;;15.60;99.90;;;;;;4991852;28;20026;-75
2023/08/03 00:05:24;;;;;;;8.90;2.90;;;15.70;99.90;;;;;;4991554;28;20023;-75
2023/08/03 00:07:51;;;;;;;9.95;2.95;;;15.70;99.90;;;;;;4991440;28;20125;-75
2023/08/03 00:10:18;;;;;;;5.20;2.65;;;15.60;99.90;;;;;;4991361;28;20060;-75
2023/08/03 00:12:44;;;;;;;8.02;3.00;;;15.60;99.90;;;;;;4991854;28;20133;-75
2023/08/03 00:15:12;;;;;;;10.13;3.10;;;15.60;99.90;;;;;;4991350;28;20030;-74
2023/08/03 00:17:38;;;;;;;7.03;2.85;;;15.60;99.90;;;;;;4990150;28;20034;-75
2023/08/03 00:20:05;;;;;;;8.75;3.00;;;15.60;99.90;;;;;;4991255;28;20034;-75
2023/08/03 00:22:31;;;;;;;7.93;3.00;;;15.60;99.90;;;;;;4991613;28;20086;-75
2023/08/03 00:24:58;;;;;;;8.20;3.03;;;15.60;99.90;;;;;;4991641;28;20034;-75
2023/08/03 00:27:24;;;;;;;10.00;3.47;;;15.60;99.90;;;;;;4990981;28;20369;-75
2023/08/03 00:29:50;;;;;;;8.35;3.15;;;15.60;99.90;;;;;;4991232;28;20056;-75
2023/08/03 00:32:15;;;;;;;11.15;3.47;;;15.60;99.90;;;;;;4990939;28;20444;-74
2023/08/03 00:34:41;;;;;;;8.15;3.42;;;15.60;99.90;;;;;;4991286;28;20106;-77
2023/08/03 00:37:09;;;;;;;6.13;3.03;;;15.50;99.90;;;;;;4990614;28;20085;-74
2023/08/03 00:39:35;;;;;;;8.18;3.33;;;15.50;99.90;;;;;;4991227;28;20034;-75
2023/08/03 00:42:01;;;;;;;7.13;2.90;;;15.50;99.90;;;;;;4991007;28;20023;-75
2023/08/03 00:44:26;;;;;;;10.90;3.30;;;15.50;99.90;;;;;;4990764;28;20110;-76
2023/08/03 00:46:52;;;;;;;8.40;3.40;;;15.50;99.90;;;;;;4991285;28;20471;-75
2023/08/03 00:49:18;;;;;;;4.97;2.65;;;15.50;99.90;;;;;;4990981;28;20081;-76
2023/08/03 00:51:44;;;;;;;7.10;2.88;;;15.50;99.90;;;;;;4991121;28;20034;-77
2023/08/03 00:54:09;;;;;;;11.27;3.15;;;15.50;99.90;;;;;;4990709;28;20041;-77
2023/08/03 00:56:36;;;;;;;9.23;3.10;;;15.50;99.90;;;;;;4991217;28;20022;-77
2023/08/03 00:59:06;;;;;;;7.88;2.97;;;15.40;99.90;;;;;;4990814;28;20477;-77
2023/08/03 01:01:32;;;;;;;8.50;3.40;;;15.50;99.90;;;;;;4991498;28;20030;-76
2023/08/03 01:03:58;;;;;;;10.77;3.33;;;15.40;99.90;;;;;;4990990;28;20101;-76
2023/08/03 01:06:24;;;;;;;7.57;3.00;;;15.40;99.90;;;;;;4990691;28;20033;-77
2023/08/03 01:08:50;;;;;;;7.90;2.97;;;15.40;99.90;;;;;;4991257;28;20045;-77
2023/08/03 01:11:16;;;;;;;7.53;3.13;;;15.40;99.90;;;;;;4990306;28;20030;-77
2023/08/03 01:13:42;;;;;;;9.85;3.22;;;15.40;99.90;;;;;;4990989;28;20030;-77
2023/08/03 01:16:09;;;;;;;5.72;2.92;;;15.40;99.90;;;;;;4990490;28;20027;-77
2023/08/03 01:18:37;;;;;;;7.75;3.33;;;15.40;99.90;;;;;;4990874;28;20027;-77
2023/08/03 01:21:05;;;;;;;8.77;3.63;;;15.30;99.90;;;;;;4991437;28;20494;-77
2023/08/03 01:23:31;;;;;;;10.00;3.20;;;15.30;99.90;;;;;;4990967;28;20179;-77
2023/08/03 01:25:57;;;;;;;5.18;2.95;;;15.30;99.90;;;;;;4990774;28;20443;-77
2023/08/03 01:28:22;;;;;;;7.35;2.92;;;15.30;99.90;;;;;;4990484;28;20034;-77
2023/08/03 01:30:48;;;;;;;9.27;3.50;;;15.30;99.90;;;;;;4990467;28;20105;-77
2023/08/03 01:33:14;;;;;;;8.32;3.00;;;15.20;99.90;;;;;;4990286;28;20481;-77
2023/08/03 01:35:40;;;;;;;10.32;3.20;;;15.30;99.90;;;;;;4990655;28;20106;-77
2023/08/03 01:38:05;;;;;;;14.38;3.53;;;15.20;99.90;;;;;;4990801;28;20082;-78
2023/08/03 01:40:31;;;;;;;8.93;3.30;;;15.20;99.90;;;;;;4990936;28;20063;-77
2023/08/03 01:42:57;;;;;;;13.10;3.63;;;15.20;99.90;;;;;;4990916;28;20062;-77
2023/08/03 01:45:23;;;;;;;8.55;3.33;;;15.20;99.90;;;;;;4990430;28;20352;-77
2023/08/03 01:47:48;;;;;;;10.48;3.88;;;15.10;99.90;;;;;;4990672;28;20026;-74
2023/08/03 01:50:14;;;;;;;7.28;3.05;;;15.10;99.90;;;;;;4990149;28;20057;-74
2023/08/03 01:52:40;;;;;;;8.25;3.65;;;15.10;99.90;;;;;;4990861;28;20085;-76
2023/08/03 01:55:06;;;;;;;8.80;3.45;;;15.10;99.90;;;;;;4993980;28;20391;-76
2023/08/03 01:57:32;;;;;;;11.60;3.58;;;15.10;99.90;;;;;;4994048;28;20226;-77
2023/08/03 01:59:57;;;;;;;13.85;3.47;;;15.10;99.90;;;;;;4994289;28;20038;-76
2023/08/03 02:02:23;;;;;;;8.15;3.80;;;15.10;99.90;;;;;;4993747;28;20026;-76
2023/08/03 02:04:49;;;;;;;11.93;3.58;;;15.10;99.90;;;;;;4994091;28;20068;-76
2023/08/03 02:07:38;;;;;;;9.75;3.40;;;15.10;99.90;;;;;;4993901;28;20034;-76
2023/08/03 02:10:04;;;;;;;9.07;3.60;;;15.00;99.90;;;;;;4993828;28;20061;-76
2023/08/03 02:12:30;;;;;;;10.45;3.80;;;15.00;99.90;;;;;;4993640;28;20030;-76
2023/08/03 02:14:56;;;;;;;11.05;4.28;;;15.00;99.90;;;;;;4994437;28;20523;-76
2023/08/03 02:17:21;;;;;;;8.50;3.17;;;14.90;99.90;;;;;;4993731;28;20049;-76
2023/08/03 02:19:47;;;;;;;8.70;3.42;;;14.90;99.90;;;;;;4994274;28;20117;-76
2023/08/03 02:22:13;;;;;;;15.07;3.80;;;14.80;99.90;;;;;;4993458;28;20455;-77
2023/08/03 02:24:38;;;;;;;14.70;3.95;;;14.80;99.90;;;;;;4993743;28;20037;-76
2023/08/03 02:27:04;;;;;;;9.88;4.10;;;14.70;99.90;;;;;;4994070;28;20455;-76
2023/08/03 02:29:30;;;;;;;11.07;3.60;;;14.60;99.90;;;;;;4992917;28;20034;-76
2023/08/03 02:31:56;;;;;;;10.55;3.83;;;14.60;99.90;;;;;;4994010;28;20109;-76
2023/08/03 02:34:21;;;;;;;11.18;3.78;;;14.50;99.90;;;;;;4993246;28;20062;-76
2023/08/03 02:36:47;;;;;;;10.50;3.60;;;14.50;99.90;;;;;;4994000;28;20521;-76
2023/08/03 02:39:13;;;;;;;12.38;4.28;;;14.50;99.90;;;;;;4993537;28;20061;-76
2023/08/03 02:41:38;;;;;;;11.70;3.90;;;14.40;99.90;;;;;;4994044;28;20029;-75
2023/08/03 02:44:04;;;;;;;12.38;4.00;;;14.30;99.90;;;;;;4993297;28;20392;-76
2023/08/03 02:46:30;;;;;;;13.60;3.80;;;14.30;99.90;;;;;;4992991;28;20526;-76
2023/08/03 02:48:56;;;;;;;12.95;4.53;;;14.20;99.90;;;;;;4993484;28;20030;-76
2023/08/03 02:51:22;;;;;;;11.55;4.20;;;14.20;99.90;;;;;;4993245;28;20081;-76
2023/08/03 02:53:48;;;;;;;12.75;4.15;;;14.10;99.90;;;;;;4993950;28;20129;-75
2023/08/03 02:56:13;;;;;;;11.82;3.85;;;14.10;99.90;;;;;;4993076;28;20030;-75
2023/08/03 02:58:39;;;;;;;10.70;4.10;;;14.10;99.90;;;;;;4993358;28;20041;-74
2023/08/03 03:01:05;;;;;;;9.85;3.75;;;14.00;99.90;;;;;;4993642;28;20129;-75
2023/08/03 03:03:31;;;;;;;12.15;3.63;;;13.90;99.90;;;;;;4992799;28;20029;-75
2023/08/03 03:05:56;;;;;;;11.23;3.70;;;13.90;99.90;;;;;;4993090;28;20472;-75
2023/08/03 03:08:22;;;;;;;13.20;3.95;;;13.90;99.90;;;;;;4991293;28;20030;-76
2023/08/03 03:10:48;;;;;;;14.52;4.97;;;13.80;99.90;;;;;;4993019;28;20117;-74
2023/08/03 03:13:13;;;;;;;10.60;4.10;;;13.70;99.90;;;;;;4992375;28;20033;-76
2023/08/03 03:15:39;;;;;;;12.82;4.28;;;13.70;99.90;;;;;;4993228;28;20050;-75
2023/08/03 03:18:05;;;;;;;11.55;5.00;;;13.70;99.90;;;;;;4993234;28;20352;-75
2023/08/03 03:20:31;;;;;;;12.07;4.18;;;13.70;99.90;;;;;;4992435;28;20490;-74
2023/08/03 03:22:56;;;;;;;9.27;4.05;;;13.70;99.90;;;;;;4993083;28;20034;-74
2023/08/03 03:25:22;;;;;;;11.60;4.65;;;13.70;99.90;;;;;;4992427;28;20434;-75
2023/08/03 03:27:48;;;;;;;13.27;4.80;;;13.60;99.90;;;;;;4993022;28;20042;-74
2023/08/03 03:30:16;;;;;;;12.30;4.50;;;13.60;99.90;;;;;;4992539;28;20431;-76
2023/08/03 03:32:42;;;;;;;10.50;3.97;;;13.60;99.90;;;;;;4993417;28;20117;-74
2023/08/03 03:35:08;;;;;;;8.98;3.67;;;13.60;99.90;;;;;;4992369;28;20117;-75
2023/08/03 03:37:34;;;;;;;11.35;4.47;;;13.60;99.90;;;;;;4991907;28;20644;-74
2023/08/03 03:39:59;;;;;;;10.68;4.30;;;13.60;99.90;;;;;;4992645;28;20034;-75
2023/08/03 03:42:25;;;;;;;12.10;4.53;;;13.50;99.90;;;;;;4992638;28;20077;-75
2023/08/03 03:44:51;;;;;;;11.48;4.55;;;13.40;99.90;;;;;;4992668;28;20026;-74
2023/08/03 03:47:17;;;;;;;13.07;4.60;;;13.40;99.90;;;;;;4992087;28;20022;-75
2023/08/03 03:49:42;;;;;;;10.20;4.45;;;13.40;99.90;;;;;;4992391;28;20060;-75
2023/08/03 03:52:08;;;;;;;14.75;6.10;;;13.40;99.90;;;;;;4992361;28;20065;-75
2023/08/03 03:54:34;;;;;;;14.48;5.40;;;13.40;99.90;;;;;;4991540;28;20033;-76
2023/08/03 03:57:00;;;;;;;18.05;5.32;;;13.30;99.90;;;;;;4992424;28;20439;-75
2023/08/03 03:59:26;;;;;;;14.77;5.10;;;13.30;99.90;;;;;;4991724;28;20069;-74
2023/08/03 04:01:52;;;;;;;11.38;4.63;;;13.30;99.90;;;;;;4988898;28;20130;-75
2023/08/03 04:04:18;;;;;;;12.68;5.20;;;13.30;99.90;;;;;;4971853;28;20445;-76
2023/08/03 04:06:43;;;;;;;12.57;5.05;;;13.30;99.90;;;;;;4972944;28;20054;-73
2023/08/03 04:09:09;;;;;;;8.55;4.90;;;13.30;99.90;;;;;;4972507;28;20107;-74
2023/08/03 04:11:35;;;;;;;8.00;4.60;;;13.30;99.90;;;;;;4971934;28;20038;-74
2023/08/03 04:14:01;;;;;;;17.10;5.32;;;13.20;99.90;;;;;;4972424;28;20023;-74
2023/08/03 04:16:26;;;;;;;13.27;5.22;;;13.30;99.90;;;;;;4971260;28;20027;-75
2023/08/03 04:18:52;;;;;;;15.75;4.88;;;13.20;99.90;;;;;;4972132;28;20109;-74
2023/08/03 04:21:18;;;;;;;13.18;4.55;;;13.20;99.90;;;;;;4971903;28;20158;-76
2023/08/03 04:23:44;;;;;;;12.10;5.18;;;13.10;99.90;;;;;;4972476;28;20031;-75
2023/08/03 04:26:09;;;;;;;9.68;4.47;;;13.10;99.90;;;;;;4972049;28;20429;-74
2023/08/03 04:28:35;;;;;;;11.60;4.53;;;13.20;99.90;;;;;;4971692;28;20046;-74
2023/08/03 04:31:01;;;;;;;11.55;4.43;;;13.20;99.90;;;;;;4972219;28;20110;-74
2023/08/03 04:33:27;;;;;;;15.93;5.38;;;13.20;99.90;;;;;;4972195;28;20033;-74
2023/08/03 04:35:53;;;;;;;9.57;4.47;;;13.20;99.90;;;;;;4971911;28;20082;-74
2023/08/03 04:38:18;;;;;;;13.27;5.10;;;13.20;99.90;;;;;;4972067;28;20055;-76
2023/08/03 04:40:44;;;;;;;15.20;5.00;;;13.20;99.90;;;;;;4971986;28;20106;-75
2023/08/03 04:43:10;;;;;;;9.02;4.55;;;13.20;99.90;;;;;;4972530;28;20045;-75
2023/08/03 04:45:35;;;;;;;15.75;4.68;;;13.30;99.90;;;;;;4971451;28;20133;-74
2023/08/03 04:48:01;;;;;;;14.38;5.10;;;13.20;99.90;;;;;;4971977;28;20424;-75
2023/08/03 04:50:27;;;;;;;12.55;5.07;;;13.30;99.90;;;;;;4971681;28;20112;-75
2023/08/03 04:52:52;;;;;;;10.98;4.65;;;13.20;99.90;;;;;;4972196;28;20491;-75
2023/08/03 04:55:18;;;;;;;12.50;5.22;;;13.20;99.90;;;;;;4971493;28;20122;-76
2023/08/03 04:57:44;;;;;;;9.50;4.88;;;13.20;99.90;;;;;;4971615;28;20114;-75
2023/08/03 05:00:10;;;;;;;10.82;5.82;;;13.20;99.90;;;;;;4971872;28;20031;-74
2023/08/03 05:02:35;;;;;;;11.82;4.65;;;13.20;99.90;;;;;;4971167;28;20122;-74
2023/08/03 05:05:01;;;;;;;16.75;5.13;;;13.10;99.90;;;;;;4971968;28;20109;-74
2023/08/03 05:07:27;;;;;;;9.30;4.75;;;13.20;99.90;;;;;;4971003;28;20480;-74
2023/08/03 05:09:53;;;;;;;11.45;4.95;;;13.20;99.90;;;;;;4971703;28;20049;-74
2023/08/03 05:12:19;;;;;;;9.75;4.50;;;13.30;99.90;;;;;;4971648;28;20031;-75
2023/08/03 05:14:45;;;;;;;9.75;4.75;;;13.40;99.90;;;;;;4971072;28;20388;-74
2023/08/03 05:17:11;;;;;;;13.85;4.95;;;13.50;99.90;;;;;;4971733;28;20465;-74
2023/08/03 05:19:36;;;;;;;14.90;4.13;;;13.60;99.90;;;;;;4971598;28;20127;-74
2023/08/03 05:22:02;;;;;;;11.73;4.85;;;13.60;99.90;;;;;;4971938;28;20030;-74
2023/08/03 05:24:28;;;;;;;11.43;4.15;;;13.70;99.90;;;;;;4971317;28;20030;-76
2023/08/03 05:26:53;;;;;;;10.68;3.95;;;13.70;99.90;;;;;;4972027;28;20023;-75
2023/08/03 05:29:19;;;;;;;7.63;3.83;;;13.80;99.90;;;;;;4975586;28;20098;-75
2023/08/03 05:31:49;;;;;;;8.15;3.58;;;13.90;99.90;;;;;;4975151;28;20318;-75
2023/08/03 05:34:18;;;;;;;5.82;3.60;;;14.00;99.90;;;;;;4974034;28;20062;-75
2023/08/03 05:36:43;;;;;;;9.68;3.80;;;14.10;99.90;;;;;;4974998;28;20086;-75
2023/08/03 05:39:10;;;;;;;5.80;3.40;;;14.20;99.90;;;;;;4975606;28;20101;-75
2023/08/03 05:41:35;;;;;;;9.43;3.88;;;14.30;99.90;;;;;;4974964;28;20037;-76
2023/08/03 05:44:02;;;;;;;9.77;3.67;;;14.30;99.90;;;;;;4976134;28;20022;-73
2023/08/03 05:46:32;;;;;;;6.85;3.38;;;14.40;99.90;;;;;;4974744;28;20026;-75
2023/08/03 05:48:58;;;;;;;9.65;3.58;;;14.40;99.90;;;;;;4975356;28;20042;-77
2023/08/03 05:51:26;;;;;;;9.82;3.38;;;14.40;99.90;;;;;;4974957;28;20031;-77
2023/08/03 05:53:53;;;;;;;10.80;3.55;;;14.50;99.90;;;;;;4975462;28;20045;-76
2023/08/03 05:56:23;;;;;;;12.38;4.00;;;14.60;99.90;;;;;;4974961;28;20058;-76
2023/08/03 05:58:50;;;;;;;7.53;3.63;;;14.60;99.90;;;;;;4974529;28;20041;-76
2023/08/03 06:01:20;;;;;;;8.60;3.17;;;14.70;99.90;;;;;;4975046;28;20023;-76
2023/08/03 06:03:47;;;;;;;6.22;3.28;;;14.80;99.90;;;;;;4974696;28;20405;-75
2023/08/03 06:06:18;;;;;;;7.63;3.03;;;14.80;99.90;;;;;;4975141;28;20031;-76
2023/08/03 06:08:47;;;;;;;10.10;3.33;;;14.90;99.90;;;;;;4974449;28;20026;-76
2023/08/03 06:11:15;;;;;;;5.07;2.80;;;14.80;99.90;;;;;;4974993;28;20034;-76
2023/08/03 06:13:41;;;;;;;7.53;2.83;;;14.90;99.90;;;;;;4974124;28;20144;-76
2023/08/03 06:16:11;;;;;;;8.15;2.88;;;14.90;99.90;;;;;;4974646;28;20113;-76
2023/08/03 06:18:46;;;;;;;3.28;2.65;;;14.90;99.90;;;;;;4973980;28;20045;-78
2023/08/03 06:21:13;;;;;;;3.70;2.38;;;14.90;99.90;;;;;;4973603;28;20031;-78
2023/08/03 06:23:40;;;;;;;5.13;2.45;;;14.90;99.90;;;;;;4973823;28;20069;-78
2023/08/03 06:26:12;;;;;;;4.45;2.70;;;15.00;99.90;;;;;;4973316;28;20095;-77
2023/08/03 06:28:38;;;;;;;7.80;2.70;;;15.10;99.90;;;;;;4973824;28;20103;-77
2023/08/03 06:31:39;;;;;;;4.20;2.38;;;15.00;99.90;;;;;;4973271;28;20043;-78
2023/08/03 06:34:08;;;;;;;6.57;2.83;;;15.00;99.90;;;;;;4972748;28;20042;-78
2023/08/03 06:36:35;;;;;;;3.50;2.10;;;15.10;99.90;;;;;;4973916;28;20063;-78
2023/08/03 06:39:01;;;;;;;6.13;2.20;;;15.10;99.90;;;;;;4973927;28;20386;-77
2023/08/03 06:41:27;;;;;;;8.20;1.90;;;15.00;99.90;;;;;;4972762;28;20062;-78
2023/08/03 06:43:56;;;;;;;5.50;2.47;;;15.00;99.90;;;;;;4973291;28;20023;-78
2023/08/03 06:46:25;;;;;;;5.93;2.20;;;15.00;99.90;;;;;;4974712;28;20031;-78
2023/08/03 06:48:51;;;;;;;6.53;2.42;;;14.90;99.90;;;;;;4974392;28;20030;-78
2023/08/03 06:51:17;;;;;;;3.53;2.15;;;14.90;99.90;;;;;;4973069;28;20353;-78
2023/08/03 06:53:43;;;;;;;4.78;2.10;;;14.90;99.90;;;;;;4974109;28;20033;-78
2023/08/03 06:56:09;;;;;;;8.50;2.45;;;14.80;99.90;;;;;;4974018;28;20038;-77
2023/08/03 06:58:34;;;;;;;5.63;2.50;;;14.80;99.90;;;;;;4971727;28;20384;-76
2023/08/03 07:01:00;;;;;;;8.23;2.65;;;14.80;99.90;;;;;;4974162;28;20030;-76
2023/08/03 07:03:26;;;;;;;5.38;1.90;;;14.80;99.90;;;;;;4973646;28;20022;-78
2023/08/03 07:05:52;;;;;;;5.50;2.00;;;14.80;99.90;;;;;;4973539;28;20035;-76
2023/08/03 07:08:17;;;;;;;6.47;2.38;;;14.80;99.90;;;;;;4973583;28;20373;-76
2023/08/03 07:10:43;;;;;;;3.60;1.85;;;14.80;99.90;;;;;;4973168;28;20038;-76
2023/08/03 07:13:09;;;;;;;5.40;2.20;;;14.70;99.90;;;;;;4973735;28;20417;-76
2023/08/03 07:15:35;;;;;;;3.40;2.00;;;14.70;99.90;;;;;;4973073;28;20071;-77
2023/08/03 07:18:06;;;;;;;6.38;1.73;;;14.70;99.90;;;;;;4973060;28;20093;-76
2023/08/03 07:20:33;;;;;;;6.45;2.60;;;14.80;99.90;;;;;;4973183;28;20030;-77
2023/08/03 07:22:58;;;;;;;3.60;2.03;;;14.80;99.90;;;;;;4973383;28;20027;-76
2023/08/03 07:25:24;;;;;;;6.60;2.17;;;14.80;99.90;;;;;;4973336;28;20023;-76
2023/08/03 07:27:51;;;;;;;4.45;2.38;;;14.80;99.90;;;;;;4972878;28;20491;-77
2023/08/03 07:30:17;;;;;;;4.07;1.48;;;14.80;99.90;;;;;;4973152;28;20108;-76
2023/08/03 07:32:43;;;;;;;4.40;1.95;;;14.90;99.90;;;;;;4972584;28;20055;-75
2023/08/03 07:35:09;;;;;;;4.40;2.05;;;14.90;99.90;;;;;;4972977;28;20106;-76
2023/08/03 07:37:34;;;;;;;6.93;2.72;;;14.90;99.90;;;;;;4971664;28;20146;-76
2023/08/03 07:40:00;;;;;;;6.80;2.33;;;14.90;99.90;;;;;;4972983;28;20110;-76
2023/08/03 07:42:26;;;;;;;3.50;2.40;;;14.90;99.90;;;;;;4973082;28;20081;-77
2023/08/03 07:44:53;;;;;;;8.55;2.55;;;15.00;99.90;;;;;;4972544;28;20046;-77
2023/08/03 07:47:20;;;;;;;4.88;1.90;;;15.00;99.90;;;;;;4973008;28;20075;-78
2023/08/03 07:49:45;;;;;;;6.63;1.80;;;15.00;99.90;;;;;;4972387;28;20097;-75
2023/08/03 07:52:11;;;;;;;4.88;1.63;;;15.00;99.90;;;;;;4973039;28;20393;-75
2023/08/03 07:54:37;;;;;;;5.80;2.47;;;15.00;99.90;;;;;;4972260;28;20041;-75
2023/08/03 07:57:04;;;;;;;7.38;2.10;;;15.10;99.90;;;;;;4972762;28;20031;-75
2023/08/03 07:59:30;;;;;;;4.60;1.90;;;15.10;99.90;;;;;;4971369;28;20101;-76
2023/08/03 08:01:55;;;;;;;3.83;2.10;;;15.00;99.90;;;;;;4970848;28;20197;-75
2023/08/03 08:04:21;;;;;;;5.13;1.60;;;15.10;99.90;;;;;;4972687;28;20051;-75
2023/08/03 08:06:47;;;;;;;4.07;1.83;;;15.00;99.90;;;;;;4972039;28;20041;-76
2023/08/03 08:09:13;;;;;;;4.75;2.13;;;15.10;99.90;;;;;;4972199;28;20042;-76
2023/08/03 08:11:39;;;;;;;4.68;1.95;;;15.20;99.90;;;;;;4971981;28;20144;-76
2023/08/03 08:14:04;;;;;;;6.88;2.10;;;15.30;99.90;;;;;;4972425;28;20394;-76
2023/08/03 08:16:30;;;;;;;3.35;1.77;;;15.50;99.90;;;;;;4972230;28;20031;-76
2023/08/03 08:18:56;;;;;;;4.50;1.90;;;15.60;99.90;;;;;;4970463;28;20074;-76
2023/08/03 08:21:22;;;;;;;6.15;1.85;;;15.50;99.90;;;;;;4972404;28;20034;-75
2023/08/03 08:23:47;;;;;;;4.50;1.70;;;15.60;99.90;;;;;;4972046;28;20031;-76
2023/08/03 08:26:15;;;;;;;7.97;1.77;;;15.60;99.90;;;;;;4972354;28;20034;-76
2023/08/03 08:28:42;;;;;;;3.15;1.73;;;15.80;99.90;;;;;;4971359;28;20089;-75
2023/08/03 08:31:08;;;;;;;4.18;2.00;;;15.90;99.90;;;;;;4972245;28;20033;-75
2023/08/03 08:33:34;;;;;;;3.53;1.27;;;15.90;99.90;;;;;;4970234;28;20097;-77
2023/08/03 08:36:00;;;;;;;2.72;1.30;;;15.90;99.90;;;;;;4971905;28;20062;-76
2023/08/03 08:38:26;;;;;;;4.15;1.50;;;15.90;99.90;;;;;;4971564;28;20054;-76
2023/08/03 08:40:52;;;;;;;3.70;1.35;;;15.80;99.90;;;;;;4971498;28;20829;-76
2023/08/03 08:43:19;;;;;;;4.97;1.33;;;15.70;99.90;;;;;;4971969;28;20441;-76
2023/08/03 08:45:45;;;;;;;3.58;1.42;;;15.60;99.90;;;;;;4971405;28;20061;-76
2023/08/03 08:48:11;;;;;;;2.25;0.98;;;15.60;99.90;;;;;;4970516;28;20038;-76
2023/08/03 08:50:36;;;;;;;4.85;1.27;;;15.60;99.90;;;;;;4971319;28;20325;-76
2023/08/03 08:53:02;;;;;;;1.83;1.10;;;15.70;99.90;;;;;;4972310;28;20476;-75
2023/08/03 08:55:30;;;;;;;3.03;1.10;;;15.90;99.90;;;;;;4973016;28;20034;-75
2023/08/03 08:57:59;;;;;;;4.55;0.98;;;16.10;99.90;;;;;;4971237;28;20035;-75
2023/08/03 09:00:27;;;;;;;4.07;1.17;;;16.20;99.90;;;;;;4972868;28;20031;-75
2023/08/03 09:02:59;;;;;;;4.20;1.40;;;16.30;99.90;;;;;;4971788;28;20023;-76
2023/08/03 09:05:26;;;;;;;5.45;1.30;;;16.40;99.90;;;;;;4972784;28;20023;-75
2023/08/03 09:08:03;;;;;;;3.65;1.10;;;16.40;99.90;;;;;;4970378;28;20103;-76
2023/08/03 09:10:46;;;;;;;3.42;1.20;;;16.40;99.90;;;;;;4972162;28;20030;-75
2023/08/03 09:13:29;;;;;;;2.70;0.90;;;16.40;99.90;;;;;;4972074;28;20109;-75
2023/08/03 09:15:55;;;;;;;3.88;1.20;;;16.20;99.90;;;;;;4970880;28;20030;-76
2023/08/03 09:18:22;;;;;;;4.70;1.30;;;16.10;99.90;;;;;;4985270;28;20030;-76
2023/08/03 09:20:48;;;;;;;2.63;0.93;;;16.00;99.90;;;;;;4990820;28;20120;-76
2023/08/03 09:23:30;;;;;;;2.67;1.20;;;15.90;99.90;;;;;;4991437;28;20034;-75
2023/08/03 09:25:56;;;;;;;2.83;1.03;;;15.90;99.90;;;;;;4990396;28;20548;-75
2023/08/03 09:28:37;;;;;;;4.28;1.05;;;15.90;99.90;;;;;;4991190;28;20026;-76
2023/08/03 09:31:03;;;;;;;2.72;0.80;;;16.00;99.90;;;;;;4991549;28;20038;-76
2023/08/03 09:33:30;;;;;;;4.95;1.02;;;15.90;99.90;;;;;;4991909;28;20478;-77
2023/08/03 09:36:07;;;;;;;3.72;0.73;;;16.00;99.90;;;;;;4991253;28;20210;-77
2023/08/03 09:38:33;;;;;;;2.78;1.05;;;16.10;99.90;;;;;;4992256;28;20046;-77
2023/08/03 09:40:59;;;;;;;1.55;0.70;;;16.10;99.90;;;;;;4991599;28;20058;-77
2023/08/03 09:43:26;;;;;;;3.83;0.88;;;16.20;99.90;;;;;;4991607;28;20062;-77
2023/08/03 09:45:53;;;;;;;6.32;0.93;;;16.30;99.90;;;;;;4991271;28;20033;-76
2023/08/03 09:48:20;;;;;;;2.13;0.88;;;16.40;99.90;;;;;;4991849;28;20026;-77
2023/08/03 09:50:57;;;;;;;2.85;0.90;;;16.60;99.90;;;;;;4990726;28;20030;-76
2023/08/03 09:53:29;;;;;;;1.10;0.50;;;16.60;99.90;;;;;;4991596;28;20029;-77
2023/08/03 09:56:00;;;;;;;1.25;0.50;;;16.50;99.90;;;;;;4991479;28;20133;-76
2023/08/03 09:58:49;;;;;;;0.75;0.50;;;16.50;99.90;;;;;;4991137;28;20037;-75
2023/08/03 10:01:22;;;;;;;1.25;0.45;;;16.40;99.90;;;;;;4990256;28;20371;-76
2023/08/03 10:03:59;;;;;;;0.65;0.52;;;16.40;99.90;;;;;;4974866;28;20046;-75
2023/08/03 10:06:33;;;;;;;1.45;0.70;;;16.50;99.90;;;;;;4969443;28;20042;-75
2023/08/03 10:09:05;;;;;;;0.77;0.50;;;16.60;99.90;;;;;;4969201;28;20214;-75
2023/08/03 10:11:47;;;;;;;1.77;0.63;;;16.60;99.90;;;;;;4968814;28;20134;-75
2023/08/03 10:14:16;;;;;;;3.95;0.80;;;16.60;99.90;;;;;;4970598;28;20058;-75
2023/08/03 10:16:43;;;;;;;3.22;0.98;;;16.60;99.90;;;;;;4973266;28;20503;-75
2023/08/03 10:19:09;;;;;;;1.58;0.70;;;16.80;99.90;;;;;;4973756;28;20031;-75
2023/08/03 10:21:36;;;;;;;2.28;0.70;;;17.00;99.90;;;;;;4973906;28;20050;-74
2023/08/03 10:24:16;;;;;;;3.55;0.60;;;17.10;99.90;;;;;;4973627;28;20031;-75
2023/08/03 10:26:43;;;;;;;3.40;0.70;;;17.30;99.90;;;;;;4973422;28;20085;-77
2023/08/03 10:29:09;;;;;;;4.32;1.55;;;17.50;99.90;;;;;;4973589;28;20090;-74
2023/08/03 10:31:53;;;;;;;3.50;0.77;;;17.50;99.90;;;;;;4976973;28;20122;-75
2023/08/03 10:34:28;;;;;;;4.07;0.90;;;17.50;99.90;;;;;;4992771;28;20111;-75
2023/08/03 10:36:58;;;;;;;3.50;1.08;;;17.30;99.90;;;;;;4992914;28;20073;-75
2023/08/03 10:39:47;;;;;;;1.05;0.80;;;17.10;99.90;;;;;;4994062;28;20104;-75
2023/08/03 10:42:20;;;;;;;2.03;0.90;;;17.10;99.90;;;;;;4993698;28;20031;-75
2023/08/03 10:44:46;;;;;;;3.58;0.68;;;17.00;99.90;;;;;;4993445;28;20038;-76
2023/08/03 10:47:29;;;;;;;2.05;0.93;;;17.20;99.90;;;;;;4994142;28;20026;-77
2023/08/03 10:49:56;;;;;;;;;;;17.40;99.90;;;;;;4993341;28;20392;-77
2023/08/03 10:52:28;;;;;;;5.57;1.00;;;17.40;99.90;;;;;;4992594;28;19945;-77
2023/08/03 10:54:54;;;;;;;3.22;0.95;;;17.50;99.90;;;;;;4992339;28;20053;-78
2023/08/03 10:57:26;;;;;;;2.72;0.82;;;17.40;99.90;;;;;;4991270;28;20106;-79
2023/08/03 11:00:01;;;;;;;2.65;1.15;;;17.30;99.90;;;;;;4992362;28;20026;-76
2023/08/03 11:02:30;;;;;;;4.63;1.00;;;17.30;99.90;;;;;;4992770;28;20026;-76
2023/08/03 11:04:58;;;;;;;2.45;0.80;;;17.20;99.90;;;;;;4991594;28;20544;-77
2023/08/03 11:07:33;;;;;;;1.88;0.90;;;17.20;99.90;;;;;;4992560;28;20026;-77
2023/08/03 11:10:01;;;;;;;3.55;0.80;;;17.30;99.90;;;;;;4991900;28;20030;-77
2023/08/03 11:12:28;;;;;;;1.67;1.02;;;17.40;99.90;;;;;;4992409;28;20033;-77
2023/08/03 11:14:56;;;;;;;5.05;1.15;;;17.50;99.90;;;;;;4990425;28;20026;-77
2023/08/03 11:17:26;;;;;;;3.38;1.10;;;17.60;99.90;;;;;;4992069;28;20460;-77
2023/08/03 11:19:53;;;;;;;2.38;0.93;;;17.60;99.90;;;;;;4992058;28;20034;-77
2023/08/03 11:22:23;;;;;;;4.15;0.80;;;17.70;99.90;;;;;;4991714;28;20026;-77
2023/08/03 11:24:51;;;;;;;2.53;0.93;;;17.70;99.90;;;;;;4991200;28;20151;-77
2023/08/03 11:27:18;;;;;;;2.38;1.05;;;17.70;99.90;;;;;;4992221;28;20092;-77
2023/08/03 11:29:44;;;;;;;2.55;1.55;;;17.70;99.90;;;;;;4991430;28;20030;-77
2023/08/03 11:32:11;;;;;;;1.50;0.88;;;17.80;99.90;;;;;;4991877;28;20125;-78
2023/08/03 11:34:40;;;;;;;2.45;1.10;;;17.70;99.90;;;;;;4991805;28;20127;-78
2023/08/03 11:37:07;;;;;;;4.57;1.00;;;17.80;99.90;;;;;;4991404;28;20050;-77
2023/08/03 11:39:32;;;;;;;2.13;1.02;;;17.90;99.90;;;;;;4990604;28;20034;-77
2023/08/03 11:42:00;;;;;;;1.80;0.75;;;18.00;99.90;;;;;;4991117;28;20031;-77
2023/08/03 11:44:25;;;;;;;1.77;1.00;;;18.00;99.90;;;;;;4991875;28;20101;-77
2023/08/03 11:47:02;;;;;;;2.45;0.80;;;17.90;99.90;;;;;;4991243;28;20113;-78
2023/08/03 11:49:29;;;;;;;1.80;0.85;;;17.90;99.90;;;;;;4989940;28;20085;-77
2023/08/03 11:51:59;;;;;;;1.45;0.70;;;17.80;99.90;;;;;;4990758;28;20022;-77
2023/08/03 11:54:27;;;;;;;3.45;1.00;;;17.80;99.90;;;;;;4991944;28;20049;-77
2023/08/03 11:56:53;;;;;;;2.38;0.60;;;17.90;99.90;;;;;;4990608;28;20380;-78
2023/08/03 11:59:19;;;;;;;2.83;0.90;;;17.90;99.90;;;;;;4991734;28;20031;-78
2023/08/03 12:01:47;;;;;;;2.35;0.85;;;18.00;99.90;;;;;;4990966;28;20054;-77
2023/08/03 12:04:13;;;;;;;0.95;0.65;;;18.00;99.90;;;;;;4989813;28;20125;-78
2023/08/03 12:06:51;;;;;;;2.15;0.80;;;18.00;99.90;;;;;;4991272;28;20172;-78
2023/08/03 12:09:23;;;;;;;2.33;0.95;;;17.80;99.90;;;;;;4991781;28;20030;-77
2023/08/03 12:11:49;;;;;;;1.77;0.88;;;17.70;99.90;;;;;;4991032;28;20029;-78
2023/08/03 12:14:18;;;;;;;1.65;0.93;;;17.70;99.90;;;;;;4991933;28;20039;-79
2023/08/03 12:16:45;;;;;;;1.83;1.30;;;17.60;99.90;;;;;;4990994;28;20129;-78
2023/08/03 12:19:11;;;;;;;3.13;0.95;;;17.60;99.90;;;;;;4991951;28;20117;-78
2023/08/03 12:21:40;;;;;;;1.63;0.88;;;17.60;99.90;;;;;;4990181;28;20377;-78
2023/08/03 12:24:06;;;;;;;1.65;1.00;;;17.80;99.90;;;;;;4990125;28;20042;-78
2023/08/03 12:26:32;;;;;;;1.63;0.80;;;17.90;99.90;;;;;;4991754;28;20030;-78
2023/08/03 12:28:58;;;;;;;1.58;0.90;;;18.00;99.90;;;;;;4991023;28;20494;-79
2023/08/03 12:31:24;;;;;;;1.80;1.00;;;18.10;99.90;;;;;;4991859;28;20145;-79
2023/08/03 12:33:50;;;;;;;1.60;0.85;;;18.10;99.90;;;;;;4991053;28;20026;-78
2023/08/03 12:36:17;;;;;;;5.18;1.10;;;18.10;99.90;;;;;;4991377;28;20057;-78
2023/08/03 12:38:43;;;;;;;4.00;1.05;;;18.20;99.90;;;;;;4990704;28;20034;-80
2023/08/03 12:41:09;;;;;;;4.28;1.20;;;18.40;99.90;;;;;;4991641;28;20023;-79
2023/08/03 12:43:35;;;;;;;3.92;1.30;;;18.40;99.90;;;;;;4991270;28;20027;-79
2023/08/03 12:46:01;;;;;;;2.45;1.20;;;18.50;99.90;;;;;;4991106;28;20820;-79